sensor_id;sensor_type;location;lat;lon;timestamp;P1;durP1;ratioP1;P2;durP2;ratioP2
72127;SDS011;60000;51.030;7.024;2024-01-07T00:01:11;21.60;;;8.93;;
72127;SDS011;60000;51.030;7.024;2024-01-07T00:03:36;20.07;;;8.17;;
72127;SDS011;60000;51.030;7.024;2024-01-07T00:06:05;20.25;;;7.95;;
72127;SDS011;60000;51.030;7.024;2024-01-07T00:08:30;21.70;;;8.43;;
72127;SDS011;60000;51.030;7.024;2024-01-07T00:10:55;22.90;;;9.43;;
72127;SDS011;60000;51.030;7.024;2024-01-07T00:13:21;17.47;;;7.80;;
72127;SDS011;60000;51.030;7.024;2024-01-07T00:15:46;20.30;;;8.30;;
72127;SDS011;60000;51.030;7.024;2024-01-07T00:18:11;22.47;;;8.33;;
72127;SDS011;60000;51.030;7.024;2024-01-07T00:20:37;21.33;;;7.90;;
72127;SDS011;60000;51.030;7.024;2024-01-07T00:23:03;17.97;;;7.73;;
72127;SDS011;60000;51.030;7.024;2024-01-07T00:25:28;16.08;;;6.72;;
72127;SDS011;60000;51.030;7.024;2024-01-07T00:27:53;15.63;;;6.20;;
72127;SDS011;60000;51.030;7.024;2024-01-07T00:30:20;18.50;;;8.07;;
72127;SDS011;60000;51.030;7.024;2024-01-07T00:32:46;15.18;;;7.25;;
72127;SDS011;60000;51.030;7.024;2024-01-07T00:35:11;17.20;;;7.23;;
72127;SDS011;60000;51.030;7.024;2024-01-07T00:37:37;15.93;;;6.93;;
72127;SDS011;60000;51.030;7.024;2024-01-07T00:40:02;15.20;;;5.88;;
72127;SDS011;60000;51.030;7.024;2024-01-07T00:42:28;15.38;;;6.80;;
72127;SDS011;60000;51.030;7.024;2024-01-07T00:44:54;15.67;;;6.03;;
72127;SDS011;60000;51.030;7.024;2024-01-07T00:47:19;16.17;;;7.30;;
72127;SDS011;60000;51.030;7.024;2024-01-07T00:49:46;13.98;;;5.65;;
72127;SDS011;60000;51.030;7.024;2024-01-07T00:52:11;12.90;;;5.90;;
72127;SDS011;60000;51.030;7.024;2024-01-07T00:54:37;15.35;;;6.50;;
72127;SDS011;60000;51.030;7.024;2024-01-07T00:57:02;15.47;;;6.47;;
72127;SDS011;60000;51.030;7.024;2024-01-07T00:59:28;14.50;;;6.80;;
72127;SDS011;60000;51.030;7.024;2024-01-07T01:01:57;12.33;;;5.60;;
72127;SDS011;60000;51.030;7.024;2024-01-07T01:04:24;12.70;;;5.80;;
72127;SDS011;60000;51.030;7.024;2024-01-07T01:06:50;12.77;;;5.53;;
72127;SDS011;60000;51.030;7.024;2024-01-07T01:09:16;12.30;;;4.93;;
72127;SDS011;60000;51.030;7.024;2024-01-07T01:11:41;12.67;;;5.07;;
72127;SDS011;60000;51.030;7.024;2024-01-07T01:14:06;13.27;;;5.23;;
72127;SDS011;60000;51.030;7.024;2024-01-07T01:16:32;12.02;;;4.95;;
72127;SDS011;60000;51.030;7.024;2024-01-07T01:18:57;10.43;;;4.43;;
72127;SDS011;60000;51.030;7.024;2024-01-07T01:21:23;10.67;;;4.50;;
72127;SDS011;60000;51.030;7.024;2024-01-07T01:23:48;9.57;;;3.97;;
72127;SDS011;60000;51.030;7.024;2024-01-07T01:26:14;11.53;;;4.00;;
72127;SDS011;60000;51.030;7.024;2024-01-07T01:28:41;10.40;;;4.40;;
72127;SDS011;60000;51.030;7.024;2024-01-07T01:31:06;11.27;;;4.50;;
72127;SDS011;60000;51.030;7.024;2024-01-07T01:33:32;11.50;;;4.20;;
72127;SDS011;60000;51.030;7.024;2024-01-07T01:35:57;10.73;;;4.53;;
72127;SDS011;60000;51.030;7.024;2024-01-07T01:38:22;12.67;;;5.07;;
72127;SDS011;60000;51.030;7.024;2024-01-07T01:40:51;12.07;;;4.97;;
72127;SDS011;60000;51.030;7.024;2024-01-07T01:43:22;14.13;;;5.57;;
72127;SDS011;60000;51.030;7.024;2024-01-07T01:45:51;12.35;;;5.63;;
72127;SDS011;60000;51.030;7.024;2024-01-07T01:48:18;13.90;;;5.75;;
72127;SDS011;60000;51.030;7.024;2024-01-07T01:50:43;12.53;;;5.37;;
72127;SDS011;60000;51.030;7.024;2024-01-07T01:53:09;14.73;;;5.65;;
72127;SDS011;60000;51.030;7.024;2024-01-07T01:55:35;14.90;;;6.10;;
72127;SDS011;60000;51.030;7.024;2024-01-07T01:58:01;16.02;;;6.40;;
72127;SDS011;60000;51.030;7.024;2024-01-07T02:00:29;14.17;;;5.57;;
72127;SDS011;60000;51.030;7.024;2024-01-07T02:02:55;14.90;;;6.18;;
72127;SDS011;60000;51.030;7.024;2024-01-07T02:05:21;14.55;;;6.25;;
72127;SDS011;60000;51.030;7.024;2024-01-07T02:07:46;12.80;;;5.83;;
72127;SDS011;60000;51.030;7.024;2024-01-07T02:10:12;15.90;;;6.38;;
72127;SDS011;60000;51.030;7.024;2024-01-07T02:12:39;16.88;;;7.28;;
72127;SDS011;60000;51.030;7.024;2024-01-07T02:15:06;13.50;;;6.18;;
72127;SDS011;60000;51.030;7.024;2024-01-07T02:17:33;16.80;;;6.43;;
72127;SDS011;60000;51.030;7.024;2024-01-07T02:19:58;14.07;;;6.60;;
72127;SDS011;60000;51.030;7.024;2024-01-07T02:22:23;13.97;;;6.60;;
72127;SDS011;60000;51.030;7.024;2024-01-07T02:24:49;16.52;;;7.10;;
72127;SDS011;60000;51.030;7.024;2024-01-07T02:27:14;14.57;;;6.30;;
72127;SDS011;60000;51.030;7.024;2024-01-07T02:29:39;15.97;;;6.67;;
72127;SDS011;60000;51.030;7.024;2024-01-07T02:32:05;14.97;;;6.50;;
72127;SDS011;60000;51.030;7.024;2024-01-07T02:34:31;15.50;;;6.70;;
72127;SDS011;60000;51.030;7.024;2024-01-07T02:36:56;16.07;;;7.37;;
72127;SDS011;60000;51.030;7.024;2024-01-07T02:39:21;19.80;;;8.37;;
72127;SDS011;60000;51.030;7.024;2024-01-07T02:41:47;17.37;;;8.17;;
72127;SDS011;60000;51.030;7.024;2024-01-07T02:44:13;17.17;;;7.68;;
72127;SDS011;60000;51.030;7.024;2024-01-07T02:46:38;15.27;;;6.90;;
72127;SDS011;60000;51.030;7.024;2024-01-07T02:49:04;14.77;;;6.93;;
72127;SDS011;60000;51.030;7.024;2024-01-07T02:51:29;16.77;;;7.67;;
72127;SDS011;60000;51.030;7.024;2024-01-07T02:53:54;14.13;;;6.73;;
72127;SDS011;60000;51.030;7.024;2024-01-07T02:56:20;16.45;;;7.22;;
72127;SDS011;60000;51.030;7.024;2024-01-07T02:58:45;17.07;;;7.57;;
72127;SDS011;60000;51.030;7.024;2024-01-07T03:01:10;15.97;;;7.07;;
72127;SDS011;60000;51.030;7.024;2024-01-07T03:03:36;19.17;;;7.80;;
72127;SDS011;60000;51.030;7.024;2024-01-07T03:06:02;16.27;;;7.00;;
72127;SDS011;60000;51.030;7.024;2024-01-07T03:08:27;19.50;;;8.30;;
72127;SDS011;60000;51.030;7.024;2024-01-07T03:10:53;19.30;;;7.88;;
72127;SDS011;60000;51.030;7.024;2024-01-07T03:13:19;23.27;;;8.87;;
72127;SDS011;60000;51.030;7.024;2024-01-07T03:15:44;18.97;;;9.17;;
72127;SDS011;60000;51.030;7.024;2024-01-07T03:18:09;19.27;;;8.77;;
72127;SDS011;60000;51.030;7.024;2024-01-07T03:20:35;18.27;;;8.73;;
72127;SDS011;60000;51.030;7.024;2024-01-07T03:23:00;21.07;;;9.23;;
72127;SDS011;60000;51.030;7.024;2024-01-07T03:25:26;18.00;;;8.65;;
72127;SDS011;60000;51.030;7.024;2024-01-07T03:27:51;18.43;;;8.07;;
72127;SDS011;60000;51.030;7.024;2024-01-07T03:30:16;15.53;;;7.27;;
72127;SDS011;60000;51.030;7.024;2024-01-07T03:32:42;14.77;;;6.70;;
72127;SDS011;60000;51.030;7.024;2024-01-07T03:35:07;17.60;;;7.30;;
72127;SDS011;60000;51.030;7.024;2024-01-07T03:37:33;17.70;;;7.22;;
72127;SDS011;60000;51.030;7.024;2024-01-07T03:39:59;17.02;;;7.53;;
72127;SDS011;60000;51.030;7.024;2024-01-07T03:42:25;16.30;;;6.83;;
72127;SDS011;60000;51.030;7.024;2024-01-07T03:44:50;17.27;;;7.67;;
72127;SDS011;60000;51.030;7.024;2024-01-07T03:47:16;18.80;;;7.73;;
72127;SDS011;60000;51.030;7.024;2024-01-07T03:49:41;20.85;;;8.73;;
72127;SDS011;60000;51.030;7.024;2024-01-07T03:52:07;17.50;;;8.20;;
72127;SDS011;60000;51.030;7.024;2024-01-07T03:54:32;19.30;;;8.60;;
72127;SDS011;60000;51.030;7.024;2024-01-07T03:56:58;16.23;;;7.38;;
72127;SDS011;60000;51.030;7.024;2024-01-07T03:59:23;18.50;;;8.37;;
72127;SDS011;60000;51.030;7.024;2024-01-07T04:01:50;19.20;;;8.02;;
72127;SDS011;60000;51.030;7.024;2024-01-07T04:04:17;19.00;;;7.93;;
72127;SDS011;60000;51.030;7.024;2024-01-07T04:06:42;16.47;;;7.80;;
72127;SDS011;60000;51.030;7.024;2024-01-07T04:09:07;17.30;;;8.23;;
72127;SDS011;60000;51.030;7.024;2024-01-07T04:11:33;16.07;;;7.20;;
72127;SDS011;60000;51.030;7.024;2024-01-07T04:14:04;14.38;;;7.05;;
72127;SDS011;60000;51.030;7.024;2024-01-07T04:16:29;16.30;;;7.40;;
72127;SDS011;60000;51.030;7.024;2024-01-07T04:18:55;16.47;;;6.97;;
72127;SDS011;60000;51.030;7.024;2024-01-07T04:21:20;18.30;;;8.17;;
72127;SDS011;60000;51.030;7.024;2024-01-07T04:23:46;16.75;;;6.88;;
72127;SDS011;60000;51.030;7.024;2024-01-07T04:26:11;16.20;;;6.97;;
72127;SDS011;60000;51.030;7.024;2024-01-07T04:28:40;16.00;;;7.63;;
72127;SDS011;60000;51.030;7.024;2024-01-07T04:31:06;15.40;;;7.03;;
72127;SDS011;60000;51.030;7.024;2024-01-07T04:33:31;16.37;;;6.87;;
72127;SDS011;60000;51.030;7.024;2024-01-07T04:35:57;19.27;;;7.53;;
72127;SDS011;60000;51.030;7.024;2024-01-07T04:38:24;14.13;;;6.18;;
72127;SDS011;60000;51.030;7.024;2024-01-07T04:40:49;19.02;;;7.65;;
72127;SDS011;60000;51.030;7.024;2024-01-07T04:43:16;15.03;;;6.47;;
72127;SDS011;60000;51.030;7.024;2024-01-07T04:45:41;18.38;;;7.97;;
72127;SDS011;60000;51.030;7.024;2024-01-07T04:48:06;19.98;;;8.52;;
72127;SDS011;60000;51.030;7.024;2024-01-07T04:50:32;18.53;;;8.17;;
72127;SDS011;60000;51.030;7.024;2024-01-07T04:52:57;17.60;;;8.00;;
72127;SDS011;60000;51.030;7.024;2024-01-07T04:55:23;21.90;;;9.17;;
72127;SDS011;60000;51.030;7.024;2024-01-07T04:57:48;17.50;;;8.37;;
72127;SDS011;60000;51.030;7.024;2024-01-07T05:00:13;20.73;;;8.70;;
72127;SDS011;60000;51.030;7.024;2024-01-07T05:02:39;21.00;;;9.02;;
72127;SDS011;60000;51.030;7.024;2024-01-07T05:05:04;18.80;;;8.17;;
72127;SDS011;60000;51.030;7.024;2024-01-07T05:07:30;18.53;;;8.13;;
72127;SDS011;60000;51.030;7.024;2024-01-07T05:09:55;16.70;;;7.50;;
72127;SDS011;60000;51.030;7.024;2024-01-07T05:12:20;17.93;;;8.03;;
72127;SDS011;60000;51.030;7.024;2024-01-07T05:14:46;18.67;;;7.72;;
72127;SDS011;60000;51.030;7.024;2024-01-07T05:17:11;17.70;;;8.07;;
72127;SDS011;60000;51.030;7.024;2024-01-07T05:19:39;17.37;;;7.73;;
72127;SDS011;60000;51.030;7.024;2024-01-07T05:22:05;18.63;;;8.93;;
72127;SDS011;60000;51.030;7.024;2024-01-07T05:24:30;17.53;;;7.97;;
72127;SDS011;60000;51.030;7.024;2024-01-07T05:26:56;18.20;;;7.97;;
72127;SDS011;60000;51.030;7.024;2024-01-07T05:29:21;15.47;;;7.30;;
72127;SDS011;60000;51.030;7.024;2024-01-07T05:31:47;17.95;;;8.45;;
72127;SDS011;60000;51.030;7.024;2024-01-07T05:34:15;17.10;;;7.97;;
72127;SDS011;60000;51.030;7.024;2024-01-07T05:36:40;18.17;;;8.17;;
72127;SDS011;60000;51.030;7.024;2024-01-07T05:39:06;19.77;;;8.17;;
72127;SDS011;60000;51.030;7.024;2024-01-07T05:41:32;18.00;;;8.27;;
72127;SDS011;60000;51.030;7.024;2024-01-07T05:43:57;17.75;;;8.27;;
72127;SDS011;60000;51.030;7.024;2024-01-07T05:46:23;20.05;;;9.57;;
72127;SDS011;60000;51.030;7.024;2024-01-07T05:48:49;19.93;;;9.30;;
72127;SDS011;60000;51.030;7.024;2024-01-07T05:51:15;19.10;;;9.20;;
72127;SDS011;60000;51.030;7.024;2024-01-07T05:53:40;18.48;;;8.55;;
72127;SDS011;60000;51.030;7.024;2024-01-07T05:56:07;18.55;;;9.15;;
72127;SDS011;60000;51.030;7.024;2024-01-07T05:58:32;20.67;;;8.13;;
72127;SDS011;60000;51.030;7.024;2024-01-07T06:00:58;18.90;;;8.95;;
72127;SDS011;60000;51.030;7.024;2024-01-07T06:03:23;16.97;;;8.20;;
72127;SDS011;60000;51.030;7.024;2024-01-07T06:05:48;18.00;;;8.00;;
72127;SDS011;60000;51.030;7.024;2024-01-07T06:08:14;16.53;;;8.07;;
72127;SDS011;60000;51.030;7.024;2024-01-07T06:10:39;16.80;;;8.00;;
72127;SDS011;60000;51.030;7.024;2024-01-07T06:13:05;18.23;;;8.32;;
72127;SDS011;60000;51.030;7.024;2024-01-07T06:15:30;21.40;;;8.90;;
72127;SDS011;60000;51.030;7.024;2024-01-07T06:17:56;18.93;;;8.30;;
72127;SDS011;60000;51.030;7.024;2024-01-07T06:20:21;18.37;;;8.17;;
72127;SDS011;60000;51.030;7.024;2024-01-07T06:22:46;15.83;;;7.53;;
72127;SDS011;60000;51.030;7.024;2024-01-07T06:25:12;17.98;;;8.15;;
72127;SDS011;60000;51.030;7.024;2024-01-07T06:27:40;15.47;;;7.50;;
72127;SDS011;60000;51.030;7.024;2024-01-07T06:30:06;17.60;;;8.10;;
72127;SDS011;60000;51.030;7.024;2024-01-07T06:32:32;19.00;;;8.57;;
72127;SDS011;60000;51.030;7.024;2024-01-07T06:34:58;17.95;;;8.60;;
72127;SDS011;60000;51.030;7.024;2024-01-07T06:37:24;17.08;;;7.72;;
72127;SDS011;60000;51.030;7.024;2024-01-07T06:39:50;17.10;;;7.83;;
72127;SDS011;60000;51.030;7.024;2024-01-07T06:42:15;18.33;;;7.90;;
72127;SDS011;60000;51.030;7.024;2024-01-07T06:44:41;19.27;;;8.27;;
72127;SDS011;60000;51.030;7.024;2024-01-07T06:47:06;16.10;;;8.03;;
72127;SDS011;60000;51.030;7.024;2024-01-07T06:49:31;17.33;;;7.60;;
72127;SDS011;60000;51.030;7.024;2024-01-07T06:51:57;17.00;;;7.43;;
72127;SDS011;60000;51.030;7.024;2024-01-07T06:54:22;15.77;;;7.57;;
72127;SDS011;60000;51.030;7.024;2024-01-07T06:56:47;16.83;;;8.10;;
72127;SDS011;60000;51.030;7.024;2024-01-07T06:59:13;18.23;;;8.33;;
72127;SDS011;60000;51.030;7.024;2024-01-07T07:01:38;16.17;;;8.02;;
72127;SDS011;60000;51.030;7.024;2024-01-07T07:04:04;14.13;;;7.27;;
72127;SDS011;60000;51.030;7.024;2024-01-07T07:06:29;14.67;;;7.07;;
72127;SDS011;60000;51.030;7.024;2024-01-07T07:08:54;18.57;;;7.60;;
72127;SDS011;60000;51.030;7.024;2024-01-07T07:11:20;15.80;;;7.57;;
72127;SDS011;60000;51.030;7.024;2024-01-07T07:13:45;14.27;;;6.90;;
72127;SDS011;60000;51.030;7.024;2024-01-07T07:16:10;14.90;;;7.23;;
72127;SDS011;60000;51.030;7.024;2024-01-07T07:18:37;14.63;;;6.78;;
72127;SDS011;60000;51.030;7.024;2024-01-07T07:21:02;14.83;;;7.37;;
72127;SDS011;60000;51.030;7.024;2024-01-07T07:23:27;15.00;;;6.67;;
72127;SDS011;60000;51.030;7.024;2024-01-07T07:25:53;15.95;;;8.02;;
72127;SDS011;60000;51.030;7.024;2024-01-07T07:28:18;16.23;;;7.20;;
72127;SDS011;60000;51.030;7.024;2024-01-07T07:30:43;14.60;;;7.40;;
72127;SDS011;60000;51.030;7.024;2024-01-07T07:33:09;14.97;;;7.73;;
72127;SDS011;60000;51.030;7.024;2024-01-07T07:35:34;17.00;;;7.95;;
72127;SDS011;60000;51.030;7.024;2024-01-07T07:38:00;15.37;;;7.53;;
72127;SDS011;60000;51.030;7.024;2024-01-07T07:40:25;14.57;;;7.10;;
72127;SDS011;60000;51.030;7.024;2024-01-07T07:42:51;15.67;;;6.83;;
72127;SDS011;60000;51.030;7.024;2024-01-07T07:45:16;14.90;;;6.77;;
72127;SDS011;60000;51.030;7.024;2024-01-07T07:47:41;16.07;;;7.00;;
72127;SDS011;60000;51.030;7.024;2024-01-07T07:50:09;15.52;;;6.90;;
72127;SDS011;60000;51.030;7.024;2024-01-07T07:52:38;14.73;;;6.43;;
72127;SDS011;60000;51.030;7.024;2024-01-07T07:55:03;17.50;;;7.80;;
72127;SDS011;60000;51.030;7.024;2024-01-07T07:57:29;15.43;;;7.00;;
72127;SDS011;60000;51.030;7.024;2024-01-07T07:59:54;17.57;;;7.30;;
72127;SDS011;60000;51.030;7.024;2024-01-07T08:02:20;14.52;;;6.72;;
72127;SDS011;60000;51.030;7.024;2024-01-07T08:04:46;15.68;;;7.10;;
72127;SDS011;60000;51.030;7.024;2024-01-07T08:07:12;13.87;;;6.93;;
72127;SDS011;60000;51.030;7.024;2024-01-07T08:09:38;15.88;;;7.28;;
72127;SDS011;60000;51.030;7.024;2024-01-07T08:12:03;14.53;;;7.30;;
72127;SDS011;60000;51.030;7.024;2024-01-07T08:14:30;16.30;;;7.50;;
72127;SDS011;60000;51.030;7.024;2024-01-07T08:16:56;15.50;;;7.37;;
72127;SDS011;60000;51.030;7.024;2024-01-07T08:19:21;16.60;;;7.93;;
72127;SDS011;60000;51.030;7.024;2024-01-07T08:21:47;15.70;;;7.57;;
72127;SDS011;60000;51.030;7.024;2024-01-07T08:24:12;17.40;;;7.60;;
72127;SDS011;60000;51.030;7.024;2024-01-07T08:26:37;16.80;;;8.40;;
72127;SDS011;60000;51.030;7.024;2024-01-07T08:29:03;16.60;;;8.10;;
72127;SDS011;60000;51.030;7.024;2024-01-07T08:31:28;16.92;;;7.90;;
72127;SDS011;60000;51.030;7.024;2024-01-07T08:33:54;16.37;;;8.17;;
72127;SDS011;60000;51.030;7.024;2024-01-07T08:36:19;17.03;;;7.67;;
72127;SDS011;60000;51.030;7.024;2024-01-07T08:38:44;19.23;;;8.20;;
72127;SDS011;60000;51.030;7.024;2024-01-07T08:41:11;17.70;;;7.95;;
72127;SDS011;60000;51.030;7.024;2024-01-07T08:43:36;16.17;;;7.43;;
72127;SDS011;60000;51.030;7.024;2024-01-07T08:46:03;16.60;;;7.07;;
72127;SDS011;60000;51.030;7.024;2024-01-07T08:48:29;15.68;;;7.50;;
72127;SDS011;60000;51.030;7.024;2024-01-07T08:50:55;16.43;;;7.40;;
72127;SDS011;60000;51.030;7.024;2024-01-07T08:53:20;15.90;;;7.23;;
72127;SDS011;60000;51.030;7.024;2024-01-07T08:55:47;14.82;;;7.15;;
72127;SDS011;60000;51.030;7.024;2024-01-07T08:58:12;16.33;;;6.73;;
72127;SDS011;60000;51.030;7.024;2024-01-07T09:00:39;16.25;;;6.78;;
72127;SDS011;60000;51.030;7.024;2024-01-07T09:03:04;15.43;;;7.27;;
72127;SDS011;60000;51.030;7.024;2024-01-07T09:05:30;15.50;;;6.45;;
72127;SDS011;60000;51.030;7.024;2024-01-07T09:07:55;13.43;;;6.83;;
72127;SDS011;60000;51.030;7.024;2024-01-07T09:10:20;15.40;;;6.57;;
72127;SDS011;60000;51.030;7.024;2024-01-07T09:12:47;16.30;;;6.70;;
72127;SDS011;60000;51.030;7.024;2024-01-07T09:15:12;13.93;;;6.63;;
72127;SDS011;60000;51.030;7.024;2024-01-07T09:17:38;14.07;;;6.50;;
72127;SDS011;60000;51.030;7.024;2024-01-07T09:20:03;12.57;;;6.03;;
72127;SDS011;60000;51.030;7.024;2024-01-07T09:22:32;13.43;;;6.97;;
72127;SDS011;60000;51.030;7.024;2024-01-07T09:24:57;19.07;;;8.10;;
72127;SDS011;60000;51.030;7.024;2024-01-07T09:27:23;24.30;;;11.77;;
72127;SDS011;60000;51.030;7.024;2024-01-07T09:29:48;20.15;;;10.77;;
72127;SDS011;60000;51.030;7.024;2024-01-07T09:32:13;15.85;;;9.20;;
72127;SDS011;60000;51.030;7.024;2024-01-07T09:34:38;21.20;;;11.47;;
72127;SDS011;60000;51.030;7.024;2024-01-07T09:37:04;22.60;;;10.93;;
72127;SDS011;60000;51.030;7.024;2024-01-07T09:39:29;22.23;;;10.27;;
72127;SDS011;60000;51.030;7.024;2024-01-07T09:41:54;30.23;;;16.67;;
72127;SDS011;60000;51.030;7.024;2024-01-07T09:44:20;27.87;;;15.43;;
72127;SDS011;60000;51.030;7.024;2024-01-07T09:46:45;21.07;;;11.50;;
72127;SDS011;60000;51.030;7.024;2024-01-07T09:49:16;31.73;;;17.55;;
72127;SDS011;60000;51.030;7.024;2024-01-07T09:51:41;24.77;;;13.87;;
72127;SDS011;60000;51.030;7.024;2024-01-07T09:54:10;16.35;;;9.32;;
72127;SDS011;60000;51.030;7.024;2024-01-07T09:56:39;20.70;;;11.13;;
72127;SDS011;60000;51.030;7.024;2024-01-07T09:59:18;14.68;;;8.43;;
72127;SDS011;60000;51.030;7.024;2024-01-07T10:01:44;13.00;;;7.40;;
72127;SDS011;60000;51.030;7.024;2024-01-07T10:04:10;11.27;;;5.93;;
72127;SDS011;60000;51.030;7.024;2024-01-07T10:06:36;13.83;;;8.00;;
72127;SDS011;60000;51.030;7.024;2024-01-07T10:09:02;16.60;;;9.80;;
72127;SDS011;60000;51.030;7.024;2024-01-07T10:11:28;15.53;;;8.93;;
72127;SDS011;60000;51.030;7.024;2024-01-07T10:13:53;11.80;;;6.90;;
72127;SDS011;60000;51.030;7.024;2024-01-07T10:16:19;12.32;;;7.13;;
72127;SDS011;60000;51.030;7.024;2024-01-07T10:18:44;13.83;;;6.90;;
72127;SDS011;60000;51.030;7.024;2024-01-07T10:21:10;14.53;;;7.17;;
72127;SDS011;60000;51.030;7.024;2024-01-07T10:23:38;13.18;;;6.88;;
72127;SDS011;60000;51.030;7.024;2024-01-07T10:26:03;17.63;;;9.03;;
72127;SDS011;60000;51.030;7.024;2024-01-07T10:28:31;19.98;;;10.30;;
72127;SDS011;60000;51.030;7.024;2024-01-07T10:30:56;20.33;;;10.18;;
72127;SDS011;60000;51.030;7.024;2024-01-07T10:33:22;19.40;;;9.97;;
72127;SDS011;60000;51.030;7.024;2024-01-07T10:35:57;14.50;;;7.70;;
72127;SDS011;60000;51.030;7.024;2024-01-07T10:38:30;16.38;;;9.60;;
72127;SDS011;60000;51.030;7.024;2024-01-07T10:40:57;15.25;;;7.57;;
72127;SDS011;60000;51.030;7.024;2024-01-07T10:43:25;16.65;;;8.07;;
72127;SDS011;60000;51.030;7.024;2024-01-07T10:45:54;14.88;;;7.10;;
72127;SDS011;60000;51.030;7.024;2024-01-07T10:48:20;15.70;;;7.40;;
72127;SDS011;60000;51.030;7.024;2024-01-07T10:50:47;16.70;;;7.65;;
72127;SDS011;60000;51.030;7.024;2024-01-07T10:53:17;14.82;;;6.53;;
72127;SDS011;60000;51.030;7.024;2024-01-07T10:55:46;14.07;;;7.00;;
72127;SDS011;60000;51.030;7.024;2024-01-07T10:58:18;15.95;;;7.13;;
72127;SDS011;60000;51.030;7.024;2024-01-07T11:00:45;15.90;;;7.20;;
72127;SDS011;60000;51.030;7.024;2024-01-07T11:03:18;16.02;;;6.85;;
72127;SDS011;60000;51.030;7.024;2024-01-07T11:06:09;14.30;;;6.90;;
72127;SDS011;60000;51.030;7.024;2024-01-07T11:11:21;16.23;;;7.65;;
72127;SDS011;60000;51.030;7.024;2024-01-07T11:13:51;14.80;;;7.53;;
72127;SDS011;60000;51.030;7.024;2024-01-07T11:19:04;14.63;;;6.67;;
72127;SDS011;60000;51.030;7.024;2024-01-07T11:21:29;12.85;;;6.53;;
72127;SDS011;60000;51.030;7.024;2024-01-07T11:23:54;13.33;;;6.80;;
72127;SDS011;60000;51.030;7.024;2024-01-07T11:26:20;14.27;;;6.33;;
72127;SDS011;60000;51.030;7.024;2024-01-07T11:28:52;14.87;;;6.57;;
72127;SDS011;60000;51.030;7.024;2024-01-07T11:31:20;13.82;;;6.32;;
72127;SDS011;60000;51.030;7.024;2024-01-07T11:33:47;13.10;;;6.45;;
72127;SDS011;60000;51.030;7.024;2024-01-07T11:36:14;12.20;;;6.20;;
72127;SDS011;60000;51.030;7.024;2024-01-07T11:41:09;13.50;;;6.28;;
72127;SDS011;60000;51.030;7.024;2024-01-07T11:43:37;12.30;;;6.18;;
72127;SDS011;60000;51.030;7.024;2024-01-07T11:46:02;12.50;;;5.77;;
72127;SDS011;60000;51.030;7.024;2024-01-07T11:48:28;12.57;;;6.07;;
72127;SDS011;60000;51.030;7.024;2024-01-07T11:50:53;13.67;;;6.80;;
72127;SDS011;60000;51.030;7.024;2024-01-07T11:53:20;14.80;;;6.67;;
72127;SDS011;60000;51.030;7.024;2024-01-07T11:55:45;13.85;;;6.38;;
72127;SDS011;60000;51.030;7.024;2024-01-07T11:58:11;14.75;;;6.80;;
72127;SDS011;60000;51.030;7.024;2024-01-07T12:00:37;12.73;;;6.50;;
72127;SDS011;60000;51.030;7.024;2024-01-07T12:03:02;13.73;;;6.00;;
72127;SDS011;60000;51.030;7.024;2024-01-07T12:05:29;13.15;;;5.82;;
72127;SDS011;60000;51.030;7.024;2024-01-07T12:07:55;11.73;;;5.50;;
72127;SDS011;60000;51.030;7.024;2024-01-07T12:10:21;13.32;;;5.93;;
72127;SDS011;60000;51.030;7.024;2024-01-07T12:12:47;12.57;;;5.77;;
72127;SDS011;60000;51.030;7.024;2024-01-07T12:15:13;11.32;;;6.13;;
72127;SDS011;60000;51.030;7.024;2024-01-07T12:17:39;13.93;;;5.87;;
72127;SDS011;60000;51.030;7.024;2024-01-07T12:20:05;11.02;;;5.35;;
72127;SDS011;60000;51.030;7.024;2024-01-07T12:22:32;13.23;;;5.70;;
72127;SDS011;60000;51.030;7.024;2024-01-07T12:25:07;12.50;;;5.82;;
72127;SDS011;60000;51.030;7.024;2024-01-07T12:27:33;12.40;;;5.65;;
72127;SDS011;60000;51.030;7.024;2024-01-07T12:30:00;12.95;;;4.90;;
72127;SDS011;60000;51.030;7.024;2024-01-07T12:32:26;12.83;;;5.63;;
72127;SDS011;60000;51.030;7.024;2024-01-07T12:34:51;12.45;;;4.97;;
72127;SDS011;60000;51.030;7.024;2024-01-07T12:37:18;12.43;;;4.85;;
72127;SDS011;60000;51.030;7.024;2024-01-07T12:39:43;10.03;;;4.83;;
72127;SDS011;60000;51.030;7.024;2024-01-07T12:42:08;13.07;;;5.30;;
72127;SDS011;60000;51.030;7.024;2024-01-07T12:44:35;12.40;;;4.87;;
72127;SDS011;60000;51.030;7.024;2024-01-07T12:47:02;9.80;;;4.57;;
72127;SDS011;60000;51.030;7.024;2024-01-07T12:49:28;12.27;;;5.13;;
72127;SDS011;60000;51.030;7.024;2024-01-07T12:51:53;12.23;;;4.90;;
72127;SDS011;60000;51.030;7.024;2024-01-07T12:54:19;12.50;;;5.07;;
72127;SDS011;60000;51.030;7.024;2024-01-07T12:56:44;9.47;;;3.93;;
72127;SDS011;60000;51.030;7.024;2024-01-07T12:59:10;10.35;;;4.30;;
72127;SDS011;60000;51.030;7.024;2024-01-07T13:01:35;8.60;;;4.40;;
72127;SDS011;60000;51.030;7.024;2024-01-07T13:04:01;8.73;;;4.55;;
72127;SDS011;60000;51.030;7.024;2024-01-07T13:06:27;10.70;;;4.20;;
72127;SDS011;60000;51.030;7.024;2024-01-07T13:08:53;9.20;;;3.93;;
72127;SDS011;60000;51.030;7.024;2024-01-07T13:11:19;9.55;;;4.28;;
72127;SDS011;60000;51.030;7.024;2024-01-07T13:13:45;11.15;;;3.90;;
72127;SDS011;60000;51.030;7.024;2024-01-07T13:16:11;8.60;;;3.60;;
72127;SDS011;60000;51.030;7.024;2024-01-07T13:18:37;9.43;;;3.72;;
72127;SDS011;60000;51.030;7.024;2024-01-07T13:21:02;8.07;;;3.77;;
72127;SDS011;60000;51.030;7.024;2024-01-07T13:23:28;7.55;;;3.55;;
72127;SDS011;60000;51.030;7.024;2024-01-07T13:25:54;9.03;;;3.83;;
72127;SDS011;60000;51.030;7.024;2024-01-07T13:28:20;9.85;;;3.90;;
72127;SDS011;60000;51.030;7.024;2024-01-07T13:30:45;9.27;;;4.03;;
72127;SDS011;60000;51.030;7.024;2024-01-07T13:33:11;9.03;;;4.23;;
72127;SDS011;60000;51.030;7.024;2024-01-07T13:35:36;8.80;;;3.70;;
72127;SDS011;60000;51.030;7.024;2024-01-07T13:38:01;9.40;;;3.40;;
72127;SDS011;60000;51.030;7.024;2024-01-07T13:40:27;7.68;;;3.95;;
72127;SDS011;60000;51.030;7.024;2024-01-07T13:42:52;9.10;;;3.80;;
72127;SDS011;60000;51.030;7.024;2024-01-07T13:45:19;7.25;;;3.67;;
72127;SDS011;60000;51.030;7.024;2024-01-07T13:47:48;8.40;;;3.53;;
72127;SDS011;60000;51.030;7.024;2024-01-07T13:50:13;8.83;;;3.80;;
72127;SDS011;60000;51.030;7.024;2024-01-07T13:52:39;9.57;;;4.28;;
72127;SDS011;60000;51.030;7.024;2024-01-07T13:55:06;8.93;;;4.17;;
72127;SDS011;60000;51.030;7.024;2024-01-07T13:57:34;7.60;;;3.20;;
72127;SDS011;60000;51.030;7.024;2024-01-07T14:00:00;9.13;;;3.80;;
72127;SDS011;60000;51.030;7.024;2024-01-07T14:02:25;8.20;;;3.77;;
72127;SDS011;60000;51.030;7.024;2024-01-07T14:04:50;7.53;;;3.10;;
72127;SDS011;60000;51.030;7.024;2024-01-07T14:07:16;7.60;;;3.60;;
72127;SDS011;60000;51.030;7.024;2024-01-07T14:09:42;7.25;;;3.38;;
72127;SDS011;60000;51.030;7.024;2024-01-07T14:12:07;7.57;;;3.35;;
72127;SDS011;60000;51.030;7.024;2024-01-07T14:14:33;8.07;;;3.63;;
72127;SDS011;60000;51.030;7.024;2024-01-07T14:16:58;7.50;;;2.90;;
72127;SDS011;60000;51.030;7.024;2024-01-07T14:19:27;5.57;;;2.20;;
72127;SDS011;60000;51.030;7.024;2024-01-07T14:21:52;6.40;;;2.75;;
72127;SDS011;60000;51.030;7.024;2024-01-07T14:24:17;6.60;;;2.47;;
72127;SDS011;60000;51.030;7.024;2024-01-07T14:26:43;6.63;;;2.30;;
72127;SDS011;60000;51.030;7.024;2024-01-07T14:29:08;9.03;;;2.80;;
72127;SDS011;60000;51.030;7.024;2024-01-07T14:31:33;5.47;;;1.87;;
72127;SDS011;60000;51.030;7.024;2024-01-07T14:33:59;7.17;;;2.40;;
72127;SDS011;60000;51.030;7.024;2024-01-07T14:36:24;6.13;;;2.60;;